Salina, KS (67401)

3:17 AM CST on February 25, 2017 (GMT -0600)
Old Salina | | Change Station

Elev 1280 ft 38.84 °N, 97.61 °W | Updated 23 seconds ago

Clear
Clear
19.0 °F
Feels Like 19 °F
N
1.0
Wind Variable Wind from SW

Today
High -- | Low -- °F
--% Chance of Precip.
Yesterday
High -- | Low -- °F
Precip. -- in
Pressure 30.23 in
Visibility 10.0 miles
Clouds Clear
Windchill 19 °F
Dew Point 14 °F
Humidity 81%
Rainfall 0.00 in
Snow Depth Not available.
7:08 AM 6:19 PM
Waning Crescent, 2% visible
METAR KSLN 250853Z AUTO 29010KT 10SM CLR M06/M10 A3018 RMK AO2 SLP235 T10611100 51001
Pressure 30.23 in
Visibility 10.0 miles
Clouds Clear
Windchill 19 °F
Dew Point 14 °F
Humidity 81%
Rainfall 0.00 in
Snow Depth Not available.
7:08 AM 6:19 PM
Waning Crescent, 2% visible
METAR KSLN 250853Z AUTO 29010KT 10SM CLR M06/M10 A3018 RMK AO2 SLP235 T10611100 51001

Get Your Daily Forecast Email!

Thanks for signing up!

Be on the lookout for a verification email in your inbox.

You'll start receiving the daily forecast at 8 AM.

×

10-Day Weather Forecast

Almanac

Astronomy

Feb. 25, 2017 Rise Set
Actual Time
Civil Twilight
Nautical Twilight
Astronomical Twilight
Moon
Length of Visible Light
Length of Day
Tomorrow will be .
, % of the Moon is Illuminated

Today's Extremes

State Highs State Lows

Community

WunderPhotos

Upload Photos

1,962,540 photos uploaded!

WunderBlog® & News

Nearby

Air Quality

  Air Quality AQ Index Pollutant
Not available.

Snow Depth

Station Depth Elevation

Earthquake Activity

City Distance Mag. Time & Date
Minimum magnitude displayed is 2.5.

Coastal Water Temperatures

Place Temperature

Stations

Nearby Weather Stations

Station Location Temp. Windchill Dew Point Humidity Wind Precip. Elev Updated Type
                   

Watches & Warnings

There are currently no watches in effect.